createdAt,value
2019-05-29T00:00:43.100Z,99037.39
2019-05-29T00:03:14.495Z,99027.98
2019-05-29T00:05:43.675Z,99036.28
2019-05-29T00:08:14.665Z,99046.06
2019-05-29T00:10:44.565Z,99036.25
2019-05-29T00:13:14.872Z,99042.66
2019-05-29T00:15:44.448Z,99049.75
2019-05-29T00:18:14.707Z,99051.72
2019-05-29T00:20:45.665Z,99050.20
2019-05-29T00:23:15.301Z,99052.09
2019-05-29T00:25:44.762Z,99058.62
2019-05-29T00:28:16.746Z,99065.84
2019-05-29T00:30:47.146Z,99070.41
2019-05-29T00:33:18.344Z,99078.00
2019-05-29T00:35:48.848Z,99074.23
2019-05-29T00:38:18.598Z,99076.41
2019-05-29T00:40:49.552Z,99085.72
2019-05-29T00:43:19.050Z,99085.42
2019-05-29T00:45:49.599Z,99088.70
2019-05-29T00:48:19.049Z,99092.64
2019-05-29T00:50:48.669Z,99095.22
2019-05-29T00:53:18.464Z,99095.48
2019-05-29T00:55:47.930Z,99097.84
2019-05-29T00:58:19.829Z,99089.03
2019-05-29T01:00:50.108Z,99088.13
2019-05-29T01:03:19.786Z,99091.25
2019-05-29T01:05:51.744Z,99087.23
2019-05-29T01:08:21.773Z,99093.32
2019-05-29T01:10:51.753Z,99090.59
2019-05-29T01:13:22.364Z,99093.36
2019-05-29T01:15:52.131Z,99094.83
2019-05-29T01:18:22.346Z,99094.60
2019-05-29T01:20:51.932Z,99091.58
2019-05-29T01:23:22.423Z,99094.51
2019-05-29T01:25:52.416Z,99103.02
2019-05-29T01:28:23.140Z,99105.82
2019-05-29T01:30:56.367Z,99110.98
2019-05-29T01:33:26.294Z,99108.66
2019-05-29T01:35:55.773Z,99099.52
2019-05-29T01:38:25.776Z,99101.91
2019-05-29T01:40:55.018Z,99104.08
2019-05-29T01:43:27.856Z,99098.33
2019-05-29T01:45:59.317Z,99105.80
2019-05-29T01:48:29.838Z,99113.95
2019-05-29T01:50:59.591Z,99116.23
2019-05-29T01:53:29.109Z,99120.33
2019-05-29T01:55:58.869Z,99119.75
2019-05-29T01:58:30.759Z,99118.86
2019-05-29T02:01:00.741Z,99124.80
2019-05-29T02:03:30.240Z,99120.61
2019-05-29T02:06:01.081Z,99134.28
2019-05-29T02:08:30.453Z,99136.17
2019-05-29T02:11:00.888Z,99135.97
2019-05-29T02:13:30.337Z,99138.61
2019-05-29T02:16:00.568Z,99143.91
2019-05-29T02:18:34.138Z,99150.95
2019-05-29T02:21:04.033Z,99151.58
2019-05-29T02:23:35.324Z,99159.75
2019-05-29T02:26:06.935Z,99162.06
2019-05-29T02:28:36.374Z,99163.16
2019-05-29T02:31:06.089Z,99160.67
2019-05-29T02:33:35.533Z,99169.49
2019-05-29T02:36:04.814Z,99166.38
2019-05-29T02:38:34.612Z,99170.55
2019-05-29T02:41:04.149Z,99180.09
2019-05-29T02:43:33.605Z,99175.46
2019-05-29T02:46:04.121Z,99184.85
2019-05-29T02:48:33.862Z,99181.59
2019-05-29T02:51:03.850Z,99194.01
2019-05-29T02:53:33.330Z,99196.86
2019-05-29T02:56:02.859Z,99200.84
2019-05-29T02:58:33.471Z,99197.14
2019-05-29T03:01:05.389Z,99205.00
2019-05-29T03:03:39.973Z,99203.95
2019-05-29T03:06:06.142Z,99207.60
2019-05-29T03:08:36.016Z,99207.62
2019-05-29T03:11:06.425Z,99216.19
2019-05-29T03:13:37.568Z,99220.94
2019-05-29T03:16:11.991Z,99233.93
2019-05-29T03:18:40.828Z,99229.50
2019-05-29T03:21:10.407Z,99243.33
2019-05-29T03:23:39.702Z,99241.81
2019-05-29T03:26:09.659Z,99246.84
2019-05-29T03:28:38.854Z,99243.42
2019-05-29T03:31:08.299Z,99248.59
2019-05-29T03:33:44.950Z,99249.42
2019-05-29T03:36:10.766Z,99252.98
2019-05-29T03:38:43.686Z,99261.27
2019-05-29T03:41:13.439Z,99265.58
2019-05-29T03:43:43.227Z,99270.87
2019-05-29T03:46:29.853Z,99263.97
2019-05-29T03:48:44.312Z,99269.08
2019-05-29T03:51:16.963Z,99267.12
2019-05-29T03:53:48.890Z,99268.44
2019-05-29T03:56:18.826Z,99271.88
2019-05-29T03:58:50.343Z,99276.03
2019-05-29T04:01:20.647Z,99277.54
2019-05-29T04:03:54.337Z,99282.60
2019-05-29T04:06:23.615Z,99292.33
2019-05-29T04:08:54.726Z,99293.55
2019-05-29T04:11:24.680Z,99297.62
2019-05-29T04:13:55.567Z,99308.34
2019-05-29T04:16:29.177Z,99310.55
2019-05-29T04:18:59.964Z,99311.93
2019-05-29T04:21:32.597Z,99314.37
2019-05-29T04:24:07.134Z,99317.50
2019-05-29T04:26:45.807Z,99319.10
2019-05-29T04:29:16.358Z,99320.85
2019-05-29T04:31:45.856Z,99327.12
2019-05-29T04:34:15.595Z,99328.40
2019-05-29T04:36:45.541Z,99338.87
2019-05-29T04:39:16.048Z,99340.88
2019-05-29T04:41:47.810Z,99346.96
2019-05-29T04:44:17.258Z,99343.26
2019-05-29T04:46:46.763Z,99350.31
2019-05-29T04:49:20.356Z,99352.42
2019-05-29T04:51:50.662Z,99360.19
2019-05-29T04:54:22.087Z,99365.89
2019-05-29T04:56:52.497Z,99368.06
2019-05-29T04:59:22.448Z,99371.17
2019-05-29T05:01:53.431Z,99368.86
2019-05-29T05:04:22.889Z,99368.77
2019-05-29T05:06:53.140Z,99368.95
2019-05-29T05:09:23.558Z,99378.70
2019-05-29T05:11:55.284Z,99379.21
2019-05-29T05:14:24.745Z,99385.11
2019-05-29T05:16:55.708Z,99381.30
2019-05-29T05:19:28.063Z,99382.33
2019-05-29T05:21:57.536Z,99378.94
2019-05-29T05:24:32.504Z,99385.88
2019-05-29T05:27:04.119Z,99380.05
2019-05-29T05:29:34.193Z,99390.80
2019-05-29T05:32:04.748Z,99390.58
2019-05-29T05:34:34.734Z,99392.84
2019-05-29T05:37:04.517Z,99388.56
2019-05-29T05:39:35.205Z,99394.33
2019-05-29T05:42:05.372Z,99392.31
2019-05-29T05:44:35.388Z,99389.98
2019-05-29T05:47:05.101Z,99389.05
2019-05-29T05:49:35.717Z,99397.88
2019-05-29T05:52:05.531Z,99400.34
2019-05-29T05:54:35.606Z,99399.95
2019-05-29T05:57:07.507Z,99407.42
2019-05-29T05:59:37.708Z,99414.67
2019-05-29T06:02:10.413Z,99414.80
2019-05-29T06:04:40.057Z,99418.57
2019-05-29T06:07:09.497Z,99424.41
2019-05-29T06:09:40.311Z,99421.84
2019-05-29T06:12:12.109Z,99420.22
2019-05-29T06:14:42.795Z,99416.55
2019-05-29T06:17:13.347Z,99421.19
2019-05-29T06:19:45.886Z,99419.94
2019-05-29T06:22:16.060Z,99420.69
2019-05-29T06:24:47.527Z,99415.59
2019-05-29T06:27:19.549Z,99417.77
2019-05-29T06:29:51.274Z,99426.75
2019-05-29T06:32:20.909Z,99423.45
2019-05-29T06:34:51.594Z,99434.72
2019-05-29T06:37:23.558Z,99427.60
2019-05-29T06:39:56.342Z,99430.83
2019-05-29T06:42:27.039Z,99431.58
2019-05-29T06:44:59.009Z,99429.98
2019-05-29T06:47:28.145Z,99430.83
2019-05-29T06:49:58.142Z,99435.56
2019-05-29T06:52:28.456Z,99433.38
2019-05-29T06:54:57.789Z,99441.03
2019-05-29T06:57:27.113Z,99439.97
2019-05-29T06:59:56.945Z,99445.93
2019-05-29T07:02:26.539Z,99441.17
2019-05-29T07:04:55.729Z,99454.56
2019-05-29T07:07:27.817Z,99450.37
2019-05-29T07:09:57.312Z,99457.79
2019-05-29T07:12:26.481Z,99459.03
2019-05-29T07:14:56.223Z,99460.36
2019-05-29T07:17:25.412Z,99459.60
2019-05-29T07:20:03.393Z,99472.56
2019-05-29T07:22:26.358Z,99468.20
2019-05-29T07:24:55.847Z,99468.92
2019-05-29T07:27:25.311Z,99477.41
2019-05-29T07:29:55.488Z,99478.17
2019-05-29T07:32:24.711Z,99482.47
2019-05-29T07:35:03.106Z,99478.88
2019-05-29T07:37:26.701Z,99483.39
2019-05-29T07:39:55.953Z,99488.73
2019-05-29T07:42:26.341Z,99494.25
2019-05-29T07:44:55.562Z,99496.69
2019-05-29T07:47:25.007Z,99496.03
2019-05-29T07:49:54.793Z,99505.77
2019-05-29T07:52:24.768Z,99502.23
2019-05-29T07:54:53.947Z,99504.40
2019-05-29T07:57:23.269Z,99501.64
2019-05-29T07:59:53.635Z,99504.40
2019-05-29T08:02:23.582Z,99500.02
2019-05-29T08:04:52.849Z,99504.66
2019-05-29T08:07:33.844Z,99501.14
2019-05-29T08:10:04.107Z,99490.92
2019-05-29T08:12:33.825Z,99502.05
2019-05-29T08:15:03.662Z,99511.06
2019-05-29T08:17:34.205Z,99498.06
2019-05-29T08:20:07.611Z,99506.02
2019-05-29T08:22:35.470Z,99510.91
2019-05-29T08:25:05.125Z,99512.95
2019-05-29T08:27:34.433Z,99513.38
2019-05-29T08:30:03.657Z,99512.52
2019-05-29T08:32:32.866Z,99512.19
2019-05-29T08:35:02.853Z,99520.98
2019-05-29T08:37:32.617Z,99520.50
2019-05-29T08:40:01.779Z,99523.66
2019-05-29T08:42:31.254Z,99521.61
2019-05-29T08:45:00.454Z,99523.96
2019-05-29T08:47:30.446Z,99520.48
2019-05-29T08:50:16.726Z,99519.60
2019-05-29T08:52:30.525Z,99529.44
2019-05-29T08:54:59.838Z,99530.50
2019-05-29T08:57:29.019Z,99524.81
2019-05-29T08:59:58.433Z,99529.18
2019-05-29T09:02:27.633Z,99527.16
2019-05-29T09:04:56.808Z,99528.45
2019-05-29T09:07:26.012Z,99525.44
2019-05-29T09:09:55.215Z,99532.06
2019-05-29T09:12:25.167Z,99536.39
2019-05-29T09:14:55.836Z,99541.24
2019-05-29T09:17:25.030Z,99534.17
2019-05-29T09:19:54.976Z,99534.72
2019-05-29T09:22:24.438Z,99537.17
2019-05-29T09:24:54.911Z,99532.08
2019-05-29T09:27:24.684Z,99531.81
2019-05-29T09:29:54.137Z,99541.37
2019-05-29T09:32:47.568Z,99534.13
2019-05-29T09:34:55.819Z,99536.70
2019-05-29T09:37:25.285Z,99533.61
2019-05-29T09:39:55.250Z,99537.62
2019-05-29T09:42:25.534Z,99543.19
2019-05-29T09:44:54.693Z,99548.19
2019-05-29T09:47:26.408Z,99558.80
2019-05-29T09:49:56.020Z,99555.71
2019-05-29T09:52:25.957Z,99554.53
2019-05-29T09:54:56.177Z,99557.41
2019-05-29T09:57:26.788Z,99562.88
2019-05-29T09:59:57.984Z,99553.86
2019-05-29T10:02:26.879Z,99564.14
2019-05-29T10:04:56.558Z,99559.53
2019-05-29T10:07:27.047Z,99563.19
2019-05-29T10:09:58.617Z,99568.52
2019-05-29T10:12:29.162Z,99562.33
2019-05-29T10:14:59.018Z,99569.72
2019-05-29T10:17:31.091Z,99564.86
2019-05-29T10:20:00.820Z,99564.30
2019-05-29T10:22:30.292Z,99561.13
2019-05-29T10:24:59.995Z,99570.93
2019-05-29T10:27:29.260Z,99569.88
2019-05-29T10:29:58.613Z,99565.81
2019-05-29T10:32:27.804Z,99565.39
2019-05-29T10:34:57.962Z,99562.48
2019-05-29T10:37:28.001Z,99566.19
2019-05-29T10:39:57.244Z,99565.04
2019-05-29T10:42:30.323Z,99567.91
2019-05-29T10:44:59.800Z,99567.07
2019-05-29T10:47:28.973Z,99565.29
2019-05-29T10:49:58.176Z,99565.37
2019-05-29T10:52:27.702Z,99561.13
2019-05-29T10:54:57.868Z,99559.39
2019-05-29T10:57:29.366Z,99562.57
2019-05-29T10:59:58.579Z,99560.45
2019-05-29T11:02:28.037Z,99559.30
2019-05-29T11:05:00.203Z,99559.72
2019-05-29T11:07:33.080Z,99560.70
2019-05-29T11:10:07.721Z,99558.84
2019-05-29T11:12:39.555Z,99555.93
2019-05-29T11:15:20.825Z,99552.87
2019-05-29T11:17:41.808Z,99548.09
2019-05-29T11:20:11.815Z,99550.86
2019-05-29T11:22:41.876Z,99549.81
2019-05-29T11:25:22.366Z,99558.72
2019-05-29T11:27:44.646Z,99553.33
2019-05-29T11:30:14.310Z,99553.82
2019-05-29T11:32:47.329Z,99554.15
2019-05-29T11:35:14.918Z,99554.23
2019-05-29T11:37:44.497Z,99547.45
2019-05-29T11:40:14.184Z,99554.47
2019-05-29T11:42:44.169Z,99550.45
2019-05-29T11:45:15.954Z,99552.22
2019-05-29T11:47:45.522Z,99553.66
2019-05-29T11:50:19.654Z,99550.67
2019-05-29T11:52:50.193Z,99550.41
2019-05-29T11:55:21.149Z,99557.27
2019-05-29T11:57:51.818Z,99547.42
2019-05-29T12:00:22.048Z,99545.92
2019-05-29T12:02:53.605Z,99548.43
2019-05-29T12:05:22.851Z,99550.28
2019-05-29T12:07:53.331Z,99547.32
2019-05-29T12:10:25.875Z,99548.12
2019-05-29T12:12:57.551Z,99552.48
2019-05-29T12:15:28.184Z,99550.91
2019-05-29T12:18:19.111Z,99542.48
2019-05-29T12:20:29.281Z,99539.83
2019-05-29T12:23:18.873Z,99532.29
2019-05-29T12:25:30.647Z,99538.51
2019-05-29T12:28:01.219Z,99541.95
2019-05-29T12:30:31.296Z,99542.56
2019-05-29T12:33:01.190Z,99538.73
2019-05-29T12:35:30.384Z,99532.30
2019-05-29T12:37:59.854Z,99535.94
2019-05-29T12:40:29.576Z,99538.34
2019-05-29T12:43:00.278Z,99537.23
2019-05-29T12:45:30.612Z,99536.16
2019-05-29T12:48:04.447Z,99536.08
2019-05-29T12:50:34.429Z,99537.73
2019-05-29T12:53:03.839Z,99536.51
2019-05-29T12:55:33.441Z,99531.37
2019-05-29T12:58:04.424Z,99531.53
2019-05-29T13:00:33.814Z,99531.72
2019-05-29T13:03:05.407Z,99531.89
2019-05-29T13:05:35.338Z,99532.15
2019-05-29T13:08:05.344Z,99529.63
2019-05-29T13:10:34.776Z,99533.20
2019-05-29T13:13:10.071Z,99539.80
2019-05-29T13:15:37.166Z,99534.68
2019-05-29T13:18:09.943Z,99538.77
2019-05-29T13:20:37.720Z,99542.39
2019-05-29T13:23:07.758Z,99539.63
2019-05-29T13:25:37.297Z,99538.96
2019-05-29T13:28:07.299Z,99539.75
2019-05-29T13:30:38.765Z,99540.03
2019-05-29T13:33:08.966Z,99536.09
2019-05-29T13:35:39.089Z,99538.28
2019-05-29T13:38:08.968Z,99542.53
2019-05-29T13:40:38.185Z,99538.75
2019-05-29T13:43:15.201Z,99535.56
2019-05-29T13:45:39.208Z,99536.04
2019-05-29T13:48:09.177Z,99535.05
2019-05-29T13:50:39.108Z,99530.81
2019-05-29T13:53:08.284Z,99535.54
2019-05-29T13:55:37.504Z,99537.50
2019-05-29T13:58:07.834Z,99538.98
2019-05-29T14:00:37.988Z,99532.86
2019-05-29T14:03:09.235Z,99528.40
2019-05-29T14:05:38.318Z,99533.05
2019-05-29T14:08:08.984Z,99527.37
2019-05-29T14:10:38.669Z,99539.27
2019-05-29T14:13:09.382Z,99534.91
2019-05-29T14:15:39.129Z,99531.67
2019-05-29T14:18:09.112Z,99533.16
2019-05-29T14:20:40.212Z,99536.64
2019-05-29T14:23:16.890Z,99540.48
2019-05-29T14:25:47.396Z,99532.97
2019-05-29T14:28:19.877Z,99536.59
2019-05-29T14:30:51.018Z,99534.48
2019-05-29T14:33:20.830Z,99537.05
2019-05-29T14:35:50.025Z,99531.48
2019-05-29T14:38:19.197Z,99535.73
2019-05-29T14:40:48.779Z,99523.14
2019-05-29T14:43:18.313Z,99529.00
2019-05-29T14:45:47.560Z,99533.59
2019-05-29T14:48:16.750Z,99535.86
2019-05-29T14:50:45.961Z,99536.11
2019-05-29T14:53:15.141Z,99536.37
2019-05-29T14:55:44.330Z,99528.28
2019-05-29T14:58:14.067Z,99527.78
2019-05-29T15:00:44.448Z,99535.55
2019-05-29T15:03:14.839Z,99526.75
2019-05-29T15:05:44.415Z,99526.67
2019-05-29T15:08:14.130Z,99525.30
2019-05-29T15:10:43.782Z,99520.34
2019-05-29T15:13:13.747Z,99531.28
2019-05-29T15:15:45.078Z,99529.48
2019-05-29T15:18:18.343Z,99525.39
2019-05-29T15:20:45.163Z,99531.20
2019-05-29T15:23:15.473Z,99526.22
2019-05-29T15:25:45.008Z,99527.74
2019-05-29T15:28:16.073Z,99525.72
2019-05-29T15:30:45.679Z,99524.23
2019-05-29T15:33:15.007Z,99522.88
2019-05-29T15:35:44.233Z,99528.57
2019-05-29T15:38:14.637Z,99530.19
2019-05-29T15:40:44.095Z,99528.55
2019-05-29T15:43:13.403Z,99525.36
2019-05-29T15:45:43.017Z,99531.00
2019-05-29T15:48:13.149Z,99528.44
2019-05-29T15:50:42.726Z,99523.34
2019-05-29T15:53:13.124Z,99526.41
2019-05-29T15:55:43.154Z,99527.78
2019-05-29T15:58:13.399Z,99525.86
2019-05-29T16:00:44.972Z,99528.09
2019-05-29T16:03:14.163Z,99525.89
2019-05-29T16:05:43.356Z,99525.39
2019-05-29T16:08:12.524Z,99528.23
2019-05-29T16:10:42.194Z,99527.25
2019-05-29T16:13:12.758Z,99525.91
2019-05-29T16:15:43.889Z,99519.69
2019-05-29T16:18:22.955Z,99525.20
2019-05-29T16:20:51.244Z,99522.90
2019-05-29T16:23:32.353Z,99524.72
2019-05-29T16:25:53.446Z,99522.15
2019-05-29T16:28:23.788Z,99527.91
2019-05-29T16:30:53.099Z,99533.05
2019-05-29T16:33:24.793Z,99531.61
2019-05-29T16:35:56.397Z,99528.95
2019-05-29T16:38:26.028Z,99531.42
2019-05-29T16:40:55.202Z,99533.81
2019-05-29T16:43:24.579Z,99541.03
2019-05-29T16:46:20.175Z,99534.01
2019-05-29T16:48:48.882Z,99540.12
2019-05-29T16:51:18.926Z,99543.31
2019-05-29T16:53:48.355Z,99544.49
2019-05-29T16:56:17.517Z,99547.88
2019-05-29T16:58:48.200Z,99543.27
2019-05-29T17:01:17.408Z,99541.80
2019-05-29T17:03:47.021Z,99545.47
2019-05-29T17:06:17.740Z,99544.72
2019-05-29T17:08:46.979Z,99539.73
2019-05-29T17:11:16.641Z,99541.18
2019-05-29T17:13:46.298Z,99543.83
2019-05-29T17:16:16.392Z,99547.20
2019-05-29T17:18:45.627Z,99547.64
2019-05-29T17:21:14.811Z,99552.24
2019-05-29T17:23:44.009Z,99552.81
2019-05-29T17:26:13.185Z,99550.83
2019-05-29T17:28:42.678Z,99549.07
2019-05-29T17:31:11.840Z,99547.66
2019-05-29T17:33:41.361Z,99543.91
2019-05-29T17:36:10.557Z,99540.88
2019-05-29T17:38:40.015Z,99544.81
2019-05-29T17:41:09.508Z,99546.86
2019-05-29T17:43:38.711Z,99550.70
2019-05-29T17:46:08.306Z,99549.81
2019-05-29T17:48:37.458Z,99557.50
2019-05-29T17:51:06.724Z,99558.58
2019-05-29T17:53:36.522Z,99555.83
2019-05-29T17:56:05.899Z,99557.23
2019-05-29T17:58:35.093Z,99559.26
2019-05-29T18:01:04.977Z,99559.68
2019-05-29T18:03:34.167Z,99562.86
2019-05-29T18:06:03.471Z,99564.47
2019-05-29T18:08:33.328Z,99557.22
2019-05-29T18:11:03.305Z,99564.40
2019-05-29T18:13:32.594Z,99560.34
2019-05-29T18:16:01.835Z,99562.11
2019-05-29T18:18:31.264Z,99556.38
2019-05-29T18:21:02.143Z,99561.34
2019-05-29T18:23:33.868Z,99557.00
2019-05-29T18:26:04.391Z,99557.91
2019-05-29T18:28:33.923Z,99561.98
2019-05-29T18:31:03.408Z,99568.05
2019-05-29T18:33:33.631Z,99565.45
2019-05-29T18:36:03.173Z,99570.44
2019-05-29T18:38:32.737Z,99562.89
2019-05-29T18:41:02.255Z,99570.83
2019-05-29T18:43:32.860Z,99569.06
2019-05-29T18:46:02.816Z,99570.55
2019-05-29T18:48:32.635Z,99570.75
2019-05-29T18:51:02.926Z,99570.98
2019-05-29T18:53:33.132Z,99570.17
2019-05-29T18:56:02.415Z,99572.27
2019-05-29T18:58:32.320Z,99577.66
2019-05-29T19:01:02.486Z,99575.48
2019-05-29T19:03:32.605Z,99581.19
2019-05-29T19:06:02.552Z,99581.67
2019-05-29T19:08:32.002Z,99589.20
2019-05-29T19:11:01.177Z,99592.34
2019-05-29T19:13:30.400Z,99598.73
2019-05-29T19:15:59.584Z,99600.25
2019-05-29T19:18:30.194Z,99607.91
2019-05-29T19:20:59.658Z,99611.47
2019-05-29T19:23:30.766Z,99616.97
2019-05-29T19:26:00.629Z,99616.98
2019-05-29T19:28:30.725Z,99623.62
2019-05-29T19:31:01.411Z,99622.79
2019-05-29T19:33:32.442Z,99626.31
2019-05-29T19:36:02.782Z,99628.77
2019-05-29T19:38:32.282Z,99628.94
2019-05-29T19:41:02.223Z,99630.04
2019-05-29T19:43:32.359Z,99634.64
2019-05-29T19:46:04.108Z,99637.05
2019-05-29T19:48:33.435Z,99642.17
2019-05-29T19:51:04.738Z,99640.84
2019-05-29T19:53:35.704Z,99649.87
2019-05-29T19:56:04.879Z,99649.75
2019-05-29T19:58:34.067Z,99654.77
2019-05-29T20:01:03.376Z,99655.84
2019-05-29T20:03:32.653Z,99662.18
2019-05-29T20:06:01.783Z,99665.08
2019-05-29T20:08:35.535Z,99672.35
2019-05-29T20:11:02.118Z,99668.95
2019-05-29T20:13:31.713Z,99674.52
2019-05-29T20:16:01.301Z,99679.86
2019-05-29T20:18:30.482Z,99680.34
2019-05-29T20:20:59.998Z,99684.94
2019-05-29T20:23:30.541Z,99689.06
2019-05-29T20:26:00.870Z,99684.12
2019-05-29T20:28:30.525Z,99690.72
2019-05-29T20:31:00.288Z,99692.50
2019-05-29T20:33:34.537Z,99689.34
2019-05-29T20:36:04.542Z,99696.77
2019-05-29T20:38:35.045Z,99695.27
2019-05-29T20:41:04.857Z,99697.02
2019-05-29T20:43:35.522Z,99694.83
2019-05-29T20:46:04.994Z,99707.43
2019-05-29T20:48:36.616Z,99711.14
2019-05-29T20:51:05.728Z,99713.84
2019-05-29T20:53:35.358Z,99711.37
2019-05-29T20:56:05.392Z,99716.34
2019-05-29T20:58:35.669Z,99722.62
2019-05-29T21:01:04.836Z,99714.20
2019-05-29T21:03:34.418Z,99719.65
2019-05-29T21:06:04.199Z,99720.56
2019-05-29T21:08:34.782Z,99720.07
2019-05-29T21:11:04.016Z,99721.97
2019-05-29T21:13:33.386Z,99727.06
2019-05-29T21:16:02.929Z,99733.19
2019-05-29T21:18:33.720Z,99734.85
2019-05-29T21:21:03.956Z,99737.11
2019-05-29T21:23:34.243Z,99737.77
2019-05-29T21:26:03.390Z,99747.24
2019-05-29T21:28:40.846Z,99752.75
2019-05-29T21:31:09.967Z,99755.29
2019-05-29T21:33:46.974Z,99749.48
2019-05-29T21:36:17.597Z,99752.59
2019-05-29T21:38:47.480Z,99753.56
2019-05-29T21:41:17.276Z,99760.11
2019-05-29T21:43:48.008Z,99762.77
2019-05-29T21:46:18.719Z,99760.56
2019-05-29T21:48:47.945Z,99756.98
2019-05-29T21:51:17.109Z,99757.53
2019-05-29T21:53:47.616Z,99758.27
2019-05-29T21:56:16.798Z,99762.97
2019-05-29T21:59:00.217Z,99765.15
2019-05-29T22:01:17.935Z,99767.61
2019-05-29T22:03:48.721Z,99763.17
2019-05-29T22:06:18.008Z,99769.11
2019-05-29T22:08:47.167Z,99775.20
2019-05-29T22:11:16.786Z,99778.90
2019-05-29T22:13:46.095Z,99782.51
2019-05-29T22:16:15.314Z,99776.95
2019-05-29T22:18:44.474Z,99783.84
2019-05-29T22:21:13.860Z,99786.34
2019-05-29T22:23:44.732Z,99784.42
2019-05-29T22:26:17.441Z,99788.64
2019-05-29T22:28:47.996Z,99781.42
2019-05-29T22:31:17.530Z,99784.46
2019-05-29T22:33:46.992Z,99787.28
2019-05-29T22:36:18.224Z,99779.72
2019-05-29T22:38:48.441Z,99787.70
2019-05-29T22:41:21.055Z,99782.56
2019-05-29T22:43:51.490Z,99782.87
2019-05-29T22:46:22.152Z,99782.39
2019-05-29T22:48:53.682Z,99786.92
2019-05-29T22:51:24.049Z,99789.63
2019-05-29T22:53:53.992Z,99786.17
2019-05-29T22:56:23.175Z,99785.22
2019-05-29T22:58:53.924Z,99779.20
2019-05-29T23:01:23.458Z,99784.14
2019-05-29T23:03:54.015Z,99785.84
2019-05-29T23:06:23.292Z,99783.66
2019-05-29T23:08:54.265Z,99781.95
2019-05-29T23:11:23.474Z,99778.07
2019-05-29T23:13:52.648Z,99788.91
2019-05-29T23:16:21.855Z,99793.55
2019-05-29T23:18:52.307Z,99790.61
2019-05-29T23:21:21.847Z,99788.23
2019-05-29T23:23:51.020Z,99785.95
2019-05-29T23:26:21.015Z,99796.00
2019-05-29T23:28:52.802Z,99791.27
2019-05-29T23:31:22.018Z,99790.30
2019-05-29T23:33:51.177Z,99801.81
2019-05-29T23:36:20.646Z,99793.35
2019-05-29T23:38:49.808Z,99789.00
2019-05-29T23:41:19.660Z,99791.75
2019-05-29T23:43:49.365Z,99791.83
2019-05-29T23:46:18.903Z,99790.58
2019-05-29T23:48:48.372Z,99795.45
2019-05-29T23:51:17.567Z,99795.00
2019-05-29T23:53:46.978Z,99786.38
2019-05-29T23:56:16.132Z,99786.42
2019-05-29T23:58:46.101Z,99785.61
